Time;durP1;ratioP1;P1;durP2;ratioP2;P2;SDS_P1;SDS_P2;PMS_P1;PMS_P2;Temp;Humidity;BMP_temperature;BMP_pressure;BME280_temperature;BME280_humidity;BME280_pressure;Samples;Min_cycle;Max_cycle;Signal;HPM_P1;HPM_P2
2022/06/21 00:01:56;;;;;;;4.90;4.40;;;16.00;87.00;;;;;;4180022;28;20261;-73
2022/06/21 00:03:57;;;;;;;6.67;4.90;;;15.90;87.60;;;;;;4180054;28;20254;-72
2022/06/21 00:05:58;;;;;;;7.03;6.00;;;15.90;88.10;;;;;;4179691;28;20749;-72
2022/06/21 00:07:59;;;;;;;7.70;6.30;;;15.90;88.70;;;;;;4180285;28;20195;-72
2022/06/21 00:10:00;;;;;;;7.57;6.37;;;15.90;88.10;;;;;;4180194;28;20230;-72
2022/06/21 00:12:00;;;;;;;7.47;5.83;;;16.00;88.30;;;;;;4178693;28;20550;-73
2022/06/21 00:14:01;;;;;;;6.03;5.33;;;15.90;88.70;;;;;;4180045;28;20195;-72
2022/06/21 00:16:05;;;;;;;6.03;5.43;;;15.90;88.30;;;;;;4179148;28;20702;-72
2022/06/21 00:18:14;;;;;;;5.33;4.80;;;16.00;88.70;;;;;;4179525;28;20303;-72
2022/06/21 00:20:20;;;;;;;7.17;5.77;;;16.10;88.10;;;;;;4179961;28;20199;-73
2022/06/21 00:22:21;;;;;;;6.17;5.27;;;16.10;87.20;;;;;;4179799;28;20184;-73
2022/06/21 00:24:22;;;;;;;6.53;5.83;;;16.00;87.80;;;;;;4179946;28;20260;-72
2022/06/21 00:26:26;;;;;;;7.73;5.17;;;16.10;88.20;;;;;;4179062;28;20257;-72
2022/06/21 00:28:27;;;;;;;5.93;5.30;;;16.00;88.50;;;;;;4179683;28;20180;-72
2022/06/21 00:30:28;;;;;;;5.80;4.73;;;16.20;88.40;;;;;;4179846;28;20215;-72
2022/06/21 00:32:28;;;;;;;7.93;6.10;;;16.20;87.60;;;;;;4179528;28;20242;-72
2022/06/21 00:34:29;;;;;;;6.27;5.67;;;16.20;87.60;;;;;;4179714;28;20615;-73
2022/06/21 00:36:33;;;;;;;7.93;7.23;;;16.10;88.20;;;;;;4179311;28;20200;-72
2022/06/21 00:38:34;;;;;;;6.73;6.13;;;16.10;88.50;;;;;;4179581;28;20212;-72
2022/06/21 00:40:35;;;;;;;7.00;5.60;;;16.30;87.10;;;;;;4179072;28;20377;-72
2022/06/21 00:42:39;;;;;;;8.33;5.33;;;16.20;88.00;;;;;;4179586;28;20180;-72
2022/06/21 00:44:43;;;;;;;8.37;5.20;;;16.10;88.10;;;;;;4179486;28;20176;-73
2022/06/21 00:46:51;;;;;;;6.17;5.57;;;16.10;88.80;;;;;;4177520;28;20719;-72
2022/06/21 00:48:53;;;;;;;6.80;6.20;;;16.00;88.80;;;;;;4179165;28;20708;-72
2022/06/21 00:51:19;;;;;;;6.30;4.80;;;16.00;89.40;;;;;;4179280;28;20631;-73
2022/06/21 00:53:26;;;;;;;7.97;5.47;;;15.80;90.10;;;;;;4179434;28;20178;-73
2022/06/21 00:55:51;;;;;;;8.87;7.57;;;15.80;90.60;;;;;;4176036;28;20195;-72
2022/06/21 00:57:54;;;;;;;6.00;5.50;;;15.80;90.80;;;;;;4162976;28;20208;-73
2022/06/21 00:59:58;;;;;;;7.77;6.47;;;15.90;90.30;;;;;;4162778;28;20644;-72
2022/06/21 01:02:02;;;;;;;6.23;5.67;;;15.90;90.10;;;;;;4163029;28;20265;-72
2022/06/21 01:04:11;;;;;;;6.93;6.27;;;16.00;89.80;;;;;;4162826;28;20212;-72
2022/06/21 01:06:19;;;;;;;6.73;5.20;;;16.00;89.00;;;;;;4162274;28;20204;-73
2022/06/21 01:08:24;;;;;;;5.97;5.27;;;16.00;89.40;;;;;;4162762;28;20688;-72
2022/06/21 01:10:26;;;;;;;8.47;7.73;;;15.90;90.30;;;;;;4163026;28;20185;-73
2022/06/21 01:12:45;;;;;;;6.90;6.23;;;15.80;90.30;;;;;;4163003;28;20184;-72
2022/06/21 01:14:55;;;;;;;8.83;7.93;;;15.60;90.60;;;;;;4162812;28;20266;-72
2022/06/21 01:16:56;;;;;;;9.00;7.53;;;15.40;91.30;;;;;;4162197;28;20214;-71
2022/06/21 01:18:57;;;;;;;7.23;6.53;;;15.30;91.50;;;;;;4162641;28;20215;-71
2022/06/21 01:20:59;;;;;;;5.67;5.00;;;15.50;91.40;;;;;;4162250;28;20192;-72
2022/06/21 01:23:10;;;;;;;7.77;6.80;;;15.50;90.90;;;;;;4162278;28;20189;-71
2022/06/21 01:25:23;;;;;;;6.53;5.60;;;15.40;91.00;;;;;;4160973;28;20592;-74
2022/06/21 01:27:24;;;;;;;8.83;6.47;;;15.40;91.00;;;;;;4162618;28;20665;-71
2022/06/21 01:29:28;;;;;;;6.30;5.70;;;15.20;91.60;;;;;;4162502;28;20199;-72
2022/06/21 01:31:30;;;;;;;9.63;5.67;;;15.10;91.90;;;;;;4162559;28;20598;-73
2022/06/21 01:33:37;;;;;;;8.20;7.13;;;15.00;92.30;;;;;;4162763;28;20343;-71
2022/06/21 01:35:47;;;;;;;6.70;6.10;;;14.90;92.40;;;;;;4161877;28;20697;-72
2022/06/21 01:37:47;;;;;;;6.97;5.13;;;14.90;92.60;;;;;;4162370;28;20208;-72
2022/06/21 01:39:54;;;;;;;11.87;5.90;;;14.80;92.90;;;;;;4162772;28;20173;-72
2022/06/21 01:42:01;;;;;;;5.70;4.73;;;14.80;92.90;;;;;;4162634;28;20209;-72
2022/06/21 01:44:06;;;;;;;4.97;4.47;;;14.80;93.00;;;;;;4162535;28;20176;-72
2022/06/21 01:46:12;;;;;;;6.23;4.87;;;14.90;93.00;;;;;;4161654;28;20323;-73
2022/06/21 01:48:16;;;;;;;7.00;5.17;;;14.90;92.50;;;;;;4174115;28;20187;-72
2022/06/21 01:50:18;;;;;;;6.57;5.27;;;14.70;93.00;;;;;;4178878;28;20550;-72
2022/06/21 01:52:24;;;;;;;7.40;4.73;;;14.60;93.20;;;;;;4180240;28;20230;-72
2022/06/21 01:54:30;;;;;;;7.10;5.23;;;14.60;93.40;;;;;;4182468;28;20187;-71
2022/06/21 01:56:37;;;;;;;8.20;5.90;;;14.50;93.80;;;;;;4181831;28;20675;-72
2022/06/21 01:58:48;;;;;;;6.60;5.77;;;14.50;93.90;;;;;;4182133;28;20207;-72
2022/06/21 02:00:59;;;;;;;5.80;4.77;;;14.60;93.70;;;;;;4182382;28;20195;-72
2022/06/21 02:03:07;;;;;;;7.37;5.23;;;14.60;93.40;;;;;;4182337;28;20183;-73
2022/06/21 02:05:40;;;;;;;6.93;5.20;;;14.50;93.70;;;;;;4181948;28;20233;-73
2022/06/21 02:07:56;;;;;;;5.83;4.97;;;14.50;93.70;;;;;;4174440;28;20218;-72
2022/06/21 02:10:02;;;;;;;5.33;3.87;;;14.50;93.90;;;;;;4175705;28;20199;-72
2022/06/21 02:12:12;;;;;;;6.30;4.50;;;14.60;93.60;;;;;;4182454;28;20186;-72
2022/06/21 02:14:28;;;;;;;5.03;4.10;;;14.60;93.70;;;;;;4182392;28;20176;-73
2022/06/21 02:16:28;;;;;;;7.73;5.43;;;14.40;93.70;;;;;;4181775;28;20196;-73
2022/06/21 02:18:32;;;;;;;6.87;4.80;;;14.50;93.90;;;;;;4181890;28;20218;-71
2022/06/21 02:20:40;;;;;;;7.20;6.53;;;14.50;93.60;;;;;;4181635;28;20192;-73
2022/06/21 02:22:41;;;;;;;6.43;5.27;;;14.50;93.70;;;;;;4180248;28;20184;-73
2022/06/21 02:24:42;;;;;;;6.03;4.33;;;14.50;93.50;;;;;;4181705;28;20199;-71
2022/06/21 02:26:43;;;;;;;6.57;4.53;;;14.40;93.60;;;;;;4179775;28;20202;-73
2022/06/21 02:28:45;;;;;;;5.07;4.30;;;14.40;93.80;;;;;;4181688;28;20211;-71
2022/06/21 02:30:51;;;;;;;5.97;4.00;;;14.30;94.30;;;;;;4181757;28;20204;-72
2022/06/21 02:32:54;;;;;;;5.30;3.80;;;14.40;94.20;;;;;;4181565;28;20590;-71
2022/06/21 02:35:05;;;;;;;5.93;4.60;;;14.40;94.00;;;;;;4181650;28;20181;-71
2022/06/21 02:37:09;;;;;;;8.23;5.00;;;14.40;94.10;;;;;;4181013;28;20284;-72
2022/06/21 02:39:15;;;;;;;6.23;4.90;;;14.40;93.60;;;;;;4181822;28;20191;-71
2022/06/21 02:41:21;;;;;;;5.33;4.37;;;14.40;93.70;;;;;;4181989;28;20214;-72
2022/06/21 02:43:29;;;;;;;5.83;4.73;;;14.40;93.70;;;;;;4181541;28;20555;-72
2022/06/21 02:46:08;;;;;;;7.23;5.13;;;14.30;93.50;;;;;;4180893;28;20195;-72
2022/06/21 02:48:15;;;;;;;5.40;4.40;;;14.30;93.60;;;;;;4181648;28;20781;-71
2022/06/21 02:50:25;;;;;;;4.47;4.07;;;14.30;93.70;;;;;;4181398;28;20192;-72
2022/06/21 02:52:33;;;;;;;4.77;3.90;;;14.20;93.80;;;;;;4181317;28;20187;-73
2022/06/21 02:54:40;;;;;;;8.30;4.37;;;14.20;93.70;;;;;;4167618;28;20192;-73
2022/06/21 02:57:00;;;;;;;4.80;4.30;;;14.20;93.60;;;;;;4164559;28;20204;-72
2022/06/21 02:59:02;;;;;;;4.70;3.80;;;14.20;93.90;;;;;;4164815;28;20743;-73
2022/06/21 03:01:05;;;;;;;4.03;3.63;;;14.10;94.10;;;;;;4164744;28;20221;-71
2022/06/21 03:03:08;;;;;;;4.10;3.70;;;14.00;94.20;;;;;;4165048;28;20679;-74
2022/06/21 03:05:16;;;;;;;7.67;4.23;;;14.00;94.20;;;;;;4163772;28;20231;-72
2022/06/21 03:07:33;;;;;;;5.57;3.70;;;14.00;94.40;;;;;;4164295;28;20623;-72
2022/06/21 03:09:35;;;;;;;4.67;3.70;;;13.90;94.50;;;;;;4164708;28;20239;-71
2022/06/21 03:11:43;;;;;;;4.20;3.83;;;13.90;94.50;;;;;;4164956;28;20188;-71
2022/06/21 03:13:44;;;;;;;7.30;3.60;;;13.90;94.60;;;;;;4164539;28;20251;-71
2022/06/21 03:15:49;;;;;;;5.40;4.30;;;13.90;94.30;;;;;;4164034;28;20328;-72
2022/06/21 03:18:04;;;;;;;5.10;4.33;;;13.90;94.40;;;;;;4164942;28;20252;-72
2022/06/21 03:20:18;;;;;;;8.80;5.23;;;13.80;94.90;;;;;;4164425;28;20180;-72
2022/06/21 03:22:23;;;;;;;4.47;4.07;;;14.00;94.60;;;;;;4164435;28;20176;-72
2022/06/21 03:24:26;;;;;;;7.17;3.73;;;14.00;94.10;;;;;;4164871;28;20177;-72
2022/06/21 03:26:28;;;;;;;5.17;3.90;;;13.90;94.30;;;;;;4164105;28;20668;-72
2022/06/21 03:28:45;;;;;;;4.23;3.83;;;13.90;94.50;;;;;;4164507;28;20708;-72
2022/06/21 03:30:47;;;;;;;4.53;4.07;;;13.90;94.50;;;;;;4163858;28;20276;-72
2022/06/21 03:32:51;;;;;;;4.20;3.77;;;13.90;94.60;;;;;;4163760;28;20189;-71
2022/06/21 03:34:53;;;;;;;5.73;3.83;;;13.90;94.40;;;;;;4164047;28;20652;-72
2022/06/21 03:36:56;;;;;;;5.10;4.60;;;13.90;94.10;;;;;;4163558;28;20632;-72
2022/06/21 03:39:02;;;;;;;4.47;4.07;;;13.80;94.70;;;;;;4164445;28;20181;-72
2022/06/21 03:43:41;;;;;;;4.87;4.40;;;13.70;95.00;;;;;;4167195;28;20180;-71
2022/06/21 03:45:44;;;;;;;5.93;4.50;;;13.70;95.10;;;;;;4163382;28;20204;-72
2022/06/21 03:47:52;;;;;;;4.53;4.03;;;13.70;95.30;;;;;;4163593;28;20188;-71
2022/06/21 03:50:05;;;;;;;4.70;4.13;;;13.80;94.90;;;;;;4163795;28;20173;-72
2022/06/21 03:52:43;;;;;;;6.10;4.23;;;13.80;95.00;;;;;;4163726;28;20189;-73
2022/06/21 03:54:50;;;;;;;5.70;4.00;;;13.70;95.40;;;;;;4145655;28;20197;-72
2022/06/21 03:56:57;;;;;;;5.07;4.53;;;13.70;95.30;;;;;;4165394;28;20207;-72
2022/06/21 03:59:10;;;;;;;4.60;3.97;;;13.80;95.30;;;;;;4165218;28;20272;-73
2022/06/21 04:01:28;;;;;;;4.63;3.87;;;13.90;94.80;;;;;;4164828;28;20554;-71
2022/06/21 04:03:42;;;;;;;5.53;4.03;;;13.90;94.80;;;;;;4164789;28;20181;-72
2022/06/21 04:06:02;;;;;;;5.63;4.40;;;13.90;94.60;;;;;;4164454;28;20209;-72
2022/06/21 04:08:16;;;;;;;6.10;5.07;;;13.90;94.40;;;;;;4165361;28;20540;-71
2022/06/21 04:10:31;;;;;;;6.57;4.67;;;14.00;94.70;;;;;;4165516;28;20184;-71
2022/06/21 04:12:45;;;;;;;6.83;4.40;;;14.10;93.70;;;;;;4165244;28;20177;-73
2022/06/21 04:14:46;;;;;;;4.60;4.10;;;14.00;94.00;;;;;;4165279;28;20203;-73
2022/06/21 04:17:07;;;;;;;6.40;3.60;;;14.00;94.00;;;;;;4162679;28;20204;-71
2022/06/21 04:19:31;;;;;;;4.20;3.80;;;14.10;93.70;;;;;;4178992;28;20204;-71
2022/06/21 04:21:44;;;;;;;4.23;3.77;;;14.10;93.80;;;;;;4175250;28;20191;-71
2022/06/21 04:24:12;;;;;;;6.03;4.00;;;14.10;93.80;;;;;;4180161;28;20216;-72
2022/06/21 04:26:31;;;;;;;4.90;3.90;;;14.10;93.90;;;;;;4180760;28;20215;-72
2022/06/21 04:28:42;;;;;;;5.57;4.53;;;14.10;93.90;;;;;;4181041;28;20191;-71
2022/06/21 04:31:08;;;;;;;6.60;4.67;;;14.10;94.00;;;;;;4181143;28;20184;-71
2022/06/21 04:33:12;;;;;;;4.43;3.77;;;14.20;93.40;;;;;;4180545;28;20209;-72
2022/06/21 04:35:19;;;;;;;4.33;3.93;;;14.20;93.80;;;;;;4180892;28;20184;-71
2022/06/21 04:37:26;;;;;;;6.57;4.17;;;14.20;93.50;;;;;;4179839;28;20212;-71
2022/06/21 04:39:36;;;;;;;5.17;3.83;;;14.30;93.90;;;;;;4181328;28;20628;-72
2022/06/21 04:41:48;;;;;;;6.10;3.90;;;14.40;93.40;;;;;;4181235;28;20255;-72
2022/06/21 04:43:57;;;;;;;4.57;3.93;;;14.40;93.20;;;;;;4180274;28;20244;-73
2022/06/21 04:46:18;;;;;;;4.87;4.33;;;14.50;93.00;;;;;;4180280;28;20200;-72
2022/06/21 04:48:46;;;;;;;5.07;3.87;;;14.50;93.00;;;;;;4180743;28;20188;-72
2022/06/21 04:50:53;;;;;;;5.23;4.33;;;14.70;93.00;;;;;;4181878;28;20184;-73
2022/06/21 04:53:02;;;;;;;6.13;4.80;;;14.90;92.70;;;;;;4181186;28;20273;-71
2022/06/21 04:55:04;;;;;;;10.33;9.30;;;15.00;92.00;;;;;;4169014;28;20180;-72
2022/06/21 04:57:25;;;;;;;6.90;5.80;;;15.10;92.00;;;;;;4164333;28;20269;-71
2022/06/21 04:59:31;;;;;;;10.27;7.43;;;14.90;93.60;;;;;;4165152;28;20243;-72
2022/06/21 05:01:35;;;;;;;13.67;7.53;;;14.80;93.80;;;;;;4163547;28;20260;-71
2022/06/21 05:03:41;;;;;;;14.03;10.00;;;15.10;94.00;;;;;;4166469;28;20620;-73
2022/06/21 05:05:42;;;;;;;13.33;10.23;;;15.20;93.50;;;;;;4163368;28;20247;-73
2022/06/21 05:07:56;;;;;;;14.30;10.67;;;15.20;93.50;;;;;;4165016;28;20652;-72
2022/06/21 05:09:58;;;;;;;11.87;9.40;;;15.40;93.90;;;;;;4165016;28;20173;-72
2022/06/21 05:12:18;;;;;;;12.07;9.37;;;15.70;93.00;;;;;;4165122;28;20235;-72
2022/06/21 05:14:23;;;;;;;13.97;11.27;;;15.70;92.90;;;;;;4164691;28;20196;-71
2022/06/21 05:16:36;;;;;;;14.63;12.23;;;15.60;93.40;;;;;;4164047;28;20224;-71
2022/06/21 05:18:43;;;;;;;15.70;11.13;;;15.70;93.90;;;;;;4165361;28;20304;-72
2022/06/21 05:20:53;;;;;;;13.67;11.00;;;15.70;94.10;;;;;;4164273;28;20639;-72
2022/06/21 05:23:01;;;;;;;12.07;10.77;;;15.80;94.00;;;;;;4163865;28;20670;-71
2022/06/21 05:25:16;;;;;;;16.17;10.47;;;15.90;93.80;;;;;;4163252;28;20195;-75
2022/06/21 05:27:40;;;;;;;13.13;11.27;;;16.00;93.90;;;;;;4162355;28;20540;-72
2022/06/21 05:29:54;;;;;;;14.50;11.77;;;16.50;93.30;;;;;;4162578;28;20248;-73
2022/06/21 05:32:00;;;;;;;13.47;10.10;;;16.80;91.90;;;;;;4162158;28;20619;-72
2022/06/21 05:34:17;;;;;;;15.00;10.90;;;17.10;90.80;;;;;;4162370;28;20553;-71
2022/06/21 05:36:22;;;;;;;20.20;18.13;;;17.10;90.80;;;;;;4161805;28;20213;-72
2022/06/21 05:38:27;;;;;;;30.40;27.67;;;16.90;91.30;;;;;;4162425;28;20600;-72
2022/06/21 05:40:43;;;;;;;13.93;11.57;;;16.40;92.60;;;;;;4162158;28;20184;-71
2022/06/21 05:42:44;;;;;;;12.37;11.07;;;16.30;93.80;;;;;;4176996;28;20589;-71
2022/06/21 05:44:52;;;;;;;16.83;13.13;;;16.40;93.60;;;;;;4178693;28;20181;-72
2022/06/21 05:46:59;;;;;;;16.47;12.60;;;16.50;93.80;;;;;;4178336;28;20600;-73
2022/06/21 05:49:01;;;;;;;15.37;13.77;;;16.90;92.20;;;;;;4178825;28;20180;-71
2022/06/21 05:51:04;;;;;;;14.20;11.27;;;16.80;92.20;;;;;;4178715;28;20196;-73
2022/06/21 05:53:16;;;;;;;13.00;11.40;;;17.00;91.70;;;;;;4178686;28;20181;-71
2022/06/21 05:55:18;;;;;;;13.70;10.47;;;17.10;91.30;;;;;;4178282;28;20176;-72
2022/06/21 05:57:22;;;;;;;14.37;10.07;;;17.00;91.10;;;;;;4178268;28;20207;-71
2022/06/21 05:59:25;;;;;;;12.60;11.27;;;17.00;91.40;;;;;;4178654;28;20176;-71
2022/06/21 06:01:40;;;;;;;33.60;30.70;;;16.90;92.00;;;;;;4178282;28;20199;-73
2022/06/21 06:04:07;;;;;;;14.33;12.93;;;16.80;91.70;;;;;;4178617;28;20190;-72
2022/06/21 06:06:13;;;;;;;13.73;10.27;;;16.60;92.70;;;;;;4178150;28;20200;-71
2022/06/21 06:08:20;;;;;;;18.77;16.90;;;16.70;93.20;;;;;;4178593;28;20671;-71
2022/06/21 06:10:23;;;;;;;13.47;12.07;;;16.80;92.20;;;;;;4178673;28;20642;-71
2022/06/21 06:12:35;;;;;;;15.67;12.93;;;16.80;92.30;;;;;;4178348;28;20638;-73
2022/06/21 06:14:42;;;;;;;12.90;10.77;;;16.90;92.40;;;;;;4178479;28;20218;-72
2022/06/21 06:16:46;;;;;;;13.03;11.70;;;16.90;92.10;;;;;;4177727;28;20211;-71
2022/06/21 06:19:13;;;;;;;12.27;10.87;;;16.80;92.20;;;;;;4178460;28;20204;-72
2022/06/21 06:21:30;;;;;;;11.70;10.50;;;16.70;92.60;;;;;;4175168;28;20203;-71
2022/06/21 06:24:04;;;;;;;9.23;8.33;;;16.70;92.50;;;;;;4178625;28;20537;-72
2022/06/21 06:26:25;;;;;;;12.60;11.50;;;17.10;91.40;;;;;;4177807;28;20193;-72
2022/06/21 06:28:44;;;;;;;12.63;11.53;;;17.00;91.40;;;;;;4178427;28;20234;-71
2022/06/21 06:31:03;;;;;;;11.23;8.63;;;17.20;91.30;;;;;;4178114;28;20267;-73
2022/06/21 06:33:18;;;;;;;9.33;7.90;;;17.50;90.50;;;;;;4178388;28;20176;-72
2022/06/21 06:35:24;;;;;;;8.57;7.57;;;17.80;88.40;;;;;;4178123;28;20169;-72
2022/06/21 06:37:32;;;;;;;9.80;8.43;;;17.70;89.60;;;;;;4178266;28;20593;-73
2022/06/21 06:39:36;;;;;;;9.83;8.93;;;17.80;87.10;;;;;;4179754;28;20210;-72
2022/06/21 06:41:55;;;;;;;9.77;8.67;;;17.60;88.80;;;;;;4181391;28;20673;-71
2022/06/21 06:44:16;;;;;;;11.70;8.33;;;17.60;89.00;;;;;;4181249;28;20185;-72
2022/06/21 06:46:41;;;;;;;9.40;8.37;;;17.80;88.20;;;;;;4167801;28;20244;-71
2022/06/21 06:48:43;;;;;;;7.03;6.33;;;18.00;87.10;;;;;;4164696;28;20708;-71
2022/06/21 06:50:48;;;;;;;6.90;6.30;;;18.30;85.80;;;;;;4164794;28;20698;-72
2022/06/21 06:53:01;;;;;;;8.27;7.00;;;18.60;84.40;;;;;;4164870;28;20263;-71
2022/06/21 06:55:23;;;;;;;8.80;7.53;;;18.30;84.40;;;;;;4164509;28;20208;-74
2022/06/21 06:57:37;;;;;;;7.07;6.37;;;18.40;84.10;;;;;;4164598;28;20208;-71
2022/06/21 06:59:40;;;;;;;7.27;6.57;;;18.20;85.30;;;;;;4164595;28;20196;-72
2022/06/21 07:01:50;;;;;;;7.87;6.67;;;18.50;83.70;;;;;;4164496;28;20710;-71
2022/06/21 07:03:52;;;;;;;8.40;7.50;;;18.20;85.90;;;;;;4164847;28;20169;-71
2022/06/21 07:06:33;;;;;;;8.63;7.83;;;18.30;85.90;;;;;;4163957;28;20201;-73
2022/06/21 07:09:18;;;;;;;7.70;6.87;;;18.30;85.00;;;;;;4163587;28;20252;-71
2022/06/21 07:11:34;;;;;;;10.53;9.73;;;18.50;84.90;;;;;;4129561;28;20644;-72
2022/06/21 07:13:35;;;;;;;7.83;7.13;;;18.50;83.60;;;;;;4155649;28;20308;-72
2022/06/21 07:15:39;;;;;;;7.97;7.00;;;18.20;85.20;;;;;;4163718;28;20209;-72
2022/06/21 07:17:53;;;;;;;7.90;5.93;;;18.50;85.30;;;;;;4164475;28;20226;-75
2022/06/21 07:19:54;;;;;;;7.37;6.67;;;18.80;83.70;;;;;;4164380;28;20268;-72
2022/06/21 07:21:55;;;;;;;19.03;17.50;;;19.30;81.60;;;;;;4164360;28;20177;-72
2022/06/21 07:23:59;;;;;;;8.90;7.60;;;19.70;77.70;;;;;;4164395;28;20189;-71
2022/06/21 07:26:11;;;;;;;7.10;6.40;;;19.30;78.70;;;;;;4163609;28;20193;-72
2022/06/21 07:28:37;;;;;;;12.17;11.17;;;19.20;82.10;;;;;;4164233;28;20184;-74
2022/06/21 07:30:42;;;;;;;13.73;11.37;;;19.60;78.60;;;;;;4164029;28;20264;-74
2022/06/21 07:32:48;;;;;;;9.07;7.73;;;19.60;77.90;;;;;;4164107;28;20315;-74
2022/06/21 07:35:06;;;;;;;9.43;7.60;;;19.70;78.30;;;;;;4180048;28;20180;-74
2022/06/21 07:37:15;;;;;;;9.10;8.20;;;19.80;77.70;;;;;;4179886;28;20208;-75
2022/06/21 07:39:47;;;;;;;15.50;14.20;;;19.80;77.30;;;;;;4180449;28;20165;-74
2022/06/21 07:41:55;;;;;;;13.23;12.10;;;19.90;76.80;;;;;;4179963;28;20661;-74
2022/06/21 07:44:19;;;;;;;7.93;6.53;;;19.70;78.50;;;;;;4180297;28;20178;-74
2022/06/21 07:46:27;;;;;;;14.43;13.13;;;19.80;77.70;;;;;;4179701;28;20242;-71
2022/06/21 07:48:45;;;;;;;10.53;9.60;;;20.00;77.30;;;;;;4179146;28;20192;-72
2022/06/21 07:50:50;;;;;;;6.93;5.83;;;20.00;76.90;;;;;;4165689;28;20206;-70
2022/06/21 07:52:59;;;;;;;8.40;6.20;;;20.20;76.10;;;;;;4173649;28;20199;-72
2022/06/21 07:55:11;;;;;;;15.27;14.17;;;20.00;76.70;;;;;;4174167;28;20253;-69
2022/06/21 07:57:36;;;;;;;44.10;40.93;;;19.80;77.10;;;;;;4178489;28;20188;-71
2022/06/21 07:59:43;;;;;;;7.90;5.97;;;19.90;76.60;;;;;;4177107;28;20259;-72
2022/06/21 08:06:41;;;;;;;9.43;6.33;;;19.70;78.50;;;;;;4178857;28;20283;-74
2022/06/21 08:09:09;;;;;;;8.23;7.50;;;19.80;78.00;;;;;;4179708;28;20871;-75
2022/06/21 08:11:15;;;;;;;22.50;21.03;;;19.90;77.10;;;;;;4179600;28;20701;-75
2022/06/21 08:13:16;;;;;;;6.73;5.67;;;20.00;77.70;;;;;;4179260;28;20864;-74
2022/06/21 08:15:17;;;;;;;6.03;5.50;;;20.10;77.00;;;;;;4179309;28;20242;-73
2022/06/21 08:17:28;;;;;;;8.30;7.70;;;20.50;75.10;;;;;;4177451;28;20212;-75
2022/06/21 08:19:39;;;;;;;6.83;5.80;;;20.60;74.60;;;;;;4179435;28;20179;-72
2022/06/21 08:22:07;;;;;;;10.47;6.70;;;20.90;73.20;;;;;;4179533;28;20219;-72
2022/06/21 08:24:21;;;;;;;11.13;10.10;;;20.60;71.20;;;;;;4179567;28;20180;-73
2022/06/21 08:26:26;;;;;;;24.63;22.87;;;20.30;73.80;;;;;;4178762;28;20283;-73
2022/06/21 08:28:57;;;;;;;6.27;5.53;;;20.40;73.10;;;;;;4179294;28;20238;-74
2022/06/21 08:31:04;;;;;;;10.37;7.23;;;20.30;75.00;;;;;;4177970;28;20286;-74
2022/06/21 08:33:14;;;;;;;12.57;11.60;;;20.30;75.60;;;;;;4179285;28;20192;-73
2022/06/21 08:35:20;;;;;;;27.63;25.93;;;20.70;72.70;;;;;;4178922;28;20191;-75
2022/06/21 08:37:41;;;;;;;8.17;7.37;;;20.80;71.70;;;;;;4178958;28;20279;-76
2022/06/21 08:39:53;;;;;;;8.57;7.80;;;20.60;72.70;;;;;;4179008;28;20263;-75
2022/06/21 08:41:56;;;;;;;26.30;24.37;;;20.90;71.30;;;;;;4179042;28;20808;-75
2022/06/21 08:44:00;;;;;;;59.83;56.20;;;21.00;71.10;;;;;;4178980;28;20173;-75
2022/06/21 08:46:31;;;;;;;7.03;5.53;;;21.20;70.20;;;;;;4178282;28;20200;-73
2022/06/21 08:48:54;;;;;;;9.40;6.30;;;21.60;69.40;;;;;;4179106;28;20552;-73
2022/06/21 08:51:07;;;;;;;12.87;11.77;;;21.50;70.40;;;;;;4177616;28;20184;-73
2022/06/21 08:53:17;;;;;;;9.00;8.10;;;21.40;69.30;;;;;;4178880;28;20648;-72
2022/06/21 08:55:30;;;;;;;8.43;5.47;;;21.30;70.00;;;;;;4169227;28;20693;-74
2022/06/21 08:58:08;;;;;;;11.63;10.70;;;21.40;69.10;;;;;;4178816;28;20266;-71
2022/06/21 09:00:34;;;;;;;7.90;7.13;;;21.70;68.10;;;;;;4178767;28;20283;-70
2022/06/21 09:02:59;;;;;;;26.93;25.03;;;21.80;68.40;;;;;;4178106;28;20183;-69
2022/06/21 09:05:31;;;;;;;6.10;5.27;;;21.80;67.50;;;;;;4178739;28;20268;-75
2022/06/21 09:08:02;;;;;;;7.23;6.07;;;21.80;68.50;;;;;;4178593;28;20172;-74
2022/06/21 09:10:10;;;;;;;13.17;12.27;;;22.00;67.30;;;;;;4177415;28;20176;-73
2022/06/21 09:12:36;;;;;;;9.20;8.50;;;22.40;65.10;;;;;;4178720;28;20196;-72
2022/06/21 09:15:01;;;;;;;7.70;6.93;;;22.50;65.00;;;;;;4178653;28;20251;-73
2022/06/21 09:17:12;;;;;;;26.07;24.40;;;22.50;65.60;;;;;;4177228;28;20230;-71
2022/06/21 09:19:34;;;;;;;15.20;13.97;;;22.70;64.40;;;;;;4177932;28;20794;-72
2022/06/21 09:21:53;;;;;;;8.27;6.20;;;22.90;64.60;;;;;;4166214;28;20195;-73
2022/06/21 09:24:12;;;;;;;10.77;9.87;;;23.20;64.10;;;;;;4178430;28;20168;-72
2022/06/21 09:26:27;;;;;;;8.57;7.97;;;23.70;61.60;;;;;;4176099;28;20214;-73
2022/06/21 09:29:07;;;;;;;8.70;8.00;;;23.60;60.00;;;;;;4162013;28;20252;-74
2022/06/21 09:31:19;;;;;;;6.33;5.20;;;23.80;59.70;;;;;;4176389;28;20184;-73
2022/06/21 09:33:26;;;;;;;7.70;7.03;;;24.10;59.20;;;;;;4180118;28;20924;-73
2022/06/21 09:35:42;;;;;;;30.33;28.33;;;23.70;59.80;;;;;;4181082;28;20180;-73
2022/06/21 09:38:09;;;;;;;5.87;5.10;;;23.90;60.10;;;;;;4181432;28;20199;-73
2022/06/21 09:40:32;;;;;;;8.40;7.70;;;24.20;60.00;;;;;;4181213;28;20212;-73
2022/06/21 09:42:42;;;;;;;7.43;6.00;;;24.40;58.40;;;;;;4181540;28;20200;-73
2022/06/21 09:45:10;;;;;;;6.63;6.13;;;24.30;58.40;;;;;;4181359;28;20160;-72
2022/06/21 09:47:26;;;;;;;6.23;5.37;;;24.30;58.30;;;;;;4174330;28;20656;-73
2022/06/21 09:49:45;;;;;;;7.77;6.80;;;24.60;60.00;;;;;;4175399;28;20161;-72
2022/06/21 09:52:09;;;;;;;7.40;6.33;;;24.70;57.10;;;;;;4196035;28;20649;-72
2022/06/21 09:54:21;;;;;;;5.80;5.30;;;25.30;55.40;;;;;;4186092;28;20584;-72
2022/06/21 09:56:24;;;;;;;7.83;7.23;;;25.60;55.20;;;;;;4189047;28;20191;-71
2022/06/21 09:58:46;;;;;;;9.60;6.00;;;26.00;53.50;;;;;;4190291;28;20644;-71
2022/06/21 10:01:00;;;;;;;6.00;5.40;;;26.20;52.30;;;;;;4190765;28;20164;-72
2022/06/21 10:03:21;;;;;;;7.27;6.17;;;26.60;51.20;;;;;;4185801;28;20192;-74
2022/06/21 10:05:47;;;;;;;23.27;21.80;;;26.30;51.30;;;;;;4195229;28;20247;-72
2022/06/21 10:08:03;;;;;;;6.13;5.63;;;25.80;52.20;;;;;;4168176;28;20161;-72
2022/06/21 10:10:34;;;;;;;7.23;5.43;;;26.10;52.50;;;;;;4185701;28;20168;-74
2022/06/21 10:12:52;;;;;;;7.53;6.27;;;26.30;50.90;;;;;;4172590;28;20342;-73
2022/06/21 10:15:25;;;;;;;8.10;7.27;;;26.40;50.90;;;;;;4186314;28;20242;-72
2022/06/21 10:17:38;;;;;;;6.07;5.57;;;26.20;51.60;;;;;;4153006;28;20212;-73
2022/06/21 10:19:47;;;;;;;7.43;6.83;;;26.20;51.70;;;;;;4175676;28;20168;-71
2022/06/21 10:21:59;;;;;;;8.73;5.93;;;26.30;51.80;;;;;;4177336;28;20208;-73
2022/06/21 10:24:00;;;;;;;7.87;7.27;;;26.40;50.20;;;;;;4177878;28;20183;-73
2022/06/21 10:26:32;;;;;;;6.80;6.20;;;26.10;50.70;;;;;;4176464;28;20200;-72
2022/06/21 10:28:54;;;;;;;6.40;5.80;;;25.60;52.00;;;;;;4175502;28;20184;-73
2022/06/21 10:31:10;;;;;;;7.00;6.30;;;25.10;54.20;;;;;;4175546;28;20712;-71
2022/06/21 10:33:25;;;;;;;6.47;5.97;;;25.10;55.20;;;;;;4176053;28;20202;-72
2022/06/21 10:35:46;;;;;;;7.73;5.80;;;25.50;54.40;;;;;;4177576;28;20181;-73
2022/06/21 10:38:30;;;;;;;6.23;5.73;;;26.90;50.90;;;;;;4177796;28;20273;-74
2022/06/21 10:40:43;;;;;;;8.13;6.23;;;27.60;51.60;;;;;;4157881;28;20181;-72
2022/06/21 10:43:23;;;;;;;16.83;15.73;;;27.70;50.60;;;;;;4171403;28;20192;-73
2022/06/21 10:45:51;;;;;;;8.33;7.53;;;27.50;50.40;;;;;;4177642;28;20263;-73
2022/06/21 10:48:05;;;;;;;10.17;9.33;;;28.10;47.10;;;;;;4178401;28;20177;-72
2022/06/21 10:50:11;;;;;;;37.65;35.17;;;28.40;47.30;;;;;;4177666;28;20190;-73
2022/06/21 10:52:46;;;;;;;54.28;51.40;;;28.30;45.80;;;;;;4178388;28;20176;-72
2022/06/21 10:55:21;;;;;;;8.65;7.97;;;27.20;49.20;;;;;;4177646;28;20176;-73
2022/06/21 10:58:06;;;;;;;11.73;10.32;;;28.60;45.10;;;;;;4168076;28;20215;-74
2022/06/21 11:03:19;;;;;;;7.40;6.68;;;28.40;44.80;;;;;;4177053;28;20276;-71
2022/06/21 11:05:46;;;;;;;7.65;6.85;;;27.20;48.30;;;;;;4175771;28;20195;-72
2022/06/21 11:08:01;;;;;;;12.48;11.55;;;27.30;48.40;;;;;;4177334;28;20674;-72
2022/06/21 11:10:09;;;;;;;17.60;16.53;;;27.30;48.80;;;;;;4177504;28;20168;-71
2022/06/21 11:15:04;;;;;;;6.27;5.67;;;27.60;48.00;;;;;;4178018;28;20203;-71
2022/06/21 11:17:12;;;;;;;12.37;11.47;;;27.70;47.00;;;;;;4175268;28;20204;-71
2022/06/21 11:19:47;;;;;;;5.60;5.03;;;27.20;46.60;;;;;;4177875;28;20560;-71
2022/06/21 11:22:15;;;;;;;28.33;26.60;;;27.70;46.40;;;;;;4175234;28;20175;-71
2022/06/21 11:24:39;;;;;;;6.23;5.63;;;27.50;46.20;;;;;;4173840;28;20235;-72
2022/06/21 11:27:13;;;;;;;8.60;6.67;;;27.20;45.50;;;;;;4176388;28;20261;-72
2022/06/21 11:29:47;;;;;;;18.70;17.40;;;27.00;46.80;;;;;;4176559;28;20172;-72
2022/06/21 11:32:10;;;;;;;5.83;5.00;;;26.90;47.90;;;;;;4177449;28;20200;-71
2022/06/21 11:34:22;;;;;;;7.57;6.63;;;27.60;47.20;;;;;;4173657;28;20205;-71
2022/06/21 11:36:26;;;;;;;7.00;6.40;;;29.00;43.30;;;;;;4176360;28;20200;-72
2022/06/21 11:38:49;;;;;;;10.75;9.98;;;29.90;42.10;;;;;;4177033;28;20208;-70